Time;durP1;ratioP1;P1;durP2;ratioP2;P2;SDS_P1;SDS_P2;PMS_P1;PMS_P2;Temp;Humidity;BMP_temperature;BMP_pressure;BME280_temperature;BME280_humidity;BME280_pressure;Samples;Min_cycle;Max_cycle;Signal;HPM_P1;HPM_P2
2022/04/09 00:00:55;;;;;;;10.70;2.55;;;;;;;5.09;78.01;100688.41;5084246;28;20114;-76
2022/04/09 00:03:23;;;;;;;19.67;3.90;;;;;;;5.13;77.94;100721.47;5084531;28;20130;-76
2022/04/09 00:05:54;;;;;;;8.73;2.65;;;;;;;4.32;87.88;100707.38;5082773;28;20107;-74
2022/04/09 00:08:22;;;;;;;6.45;2.58;;;;;;;4.24;87.01;100705.41;5082224;28;20053;-77
2022/04/09 00:10:56;;;;;;;9.90;2.80;;;;;;;4.14;90.08;100703.31;5082097;28;20071;-75
2022/04/09 00:13:23;;;;;;;7.93;2.42;;;;;;;4.08;90.28;100708.28;5081907;28;20120;-75
2022/04/09 00:15:51;;;;;;;10.32;2.45;;;;;;;4.12;89.36;100712.75;5081521;28;20053;-77
2022/04/09 00:18:28;;;;;;;9.95;2.75;;;;;;;4.09;89.78;100702.28;5079106;28;20076;-75
2022/04/09 00:20:56;;;;;;;11.27;2.70;;;;;;;4.13;90.61;100708.47;5077827;28;20098;-74
2022/04/09 00:23:24;;;;;;;11.85;2.60;;;;;;;4.12;91.78;100714.47;5076147;28;20130;-75
2022/04/09 00:25:52;;;;;;;9.93;2.72;;;;;;;4.20;92.09;100724.28;5075999;28;20069;-74
2022/04/09 00:28:20;;;;;;;8.48;2.67;;;;;;;4.24;91.61;100728.75;5075789;28;20452;-74
2022/04/09 00:30:54;;;;;;;10.52;2.38;;;;;;;4.32;90.18;100722.97;5075736;28;20110;-74
2022/04/09 00:33:22;;;;;;;11.98;3.25;;;;;;;4.42;88.49;100730.25;5075592;28;20052;-73
2022/04/09 00:35:52;;;;;;;11.98;3.63;;;;;;;4.36;88.09;100730.03;5075730;28;20139;-73
2022/04/09 00:38:21;;;;;;;12.07;3.40;;;;;;;4.46;84.33;100732.13;5075348;28;20086;-74
2022/04/09 00:40:52;;;;;;;11.70;2.70;;;;;;;4.44;84.34;100733.78;5075186;28;20083;-74
2022/04/09 00:43:20;;;;;;;13.23;3.40;;;;;;;4.38;85.26;100738.75;5074275;28;20479;-72
2022/04/09 00:45:54;;;;;;;11.93;3.20;;;;;;;4.47;83.45;100739.97;5075318;28;20171;-74
2022/04/09 00:48:24;;;;;;;16.08;3.40;;;;;;;4.51;83.48;100741.84;5075773;28;20052;-74
2022/04/09 00:50:54;;;;;;;12.05;2.67;;;;;;;4.65;83.08;100750.16;5075706;28;20158;-74
2022/04/09 00:53:25;;;;;;;20.80;4.43;;;;;;;4.61;83.62;100748.25;5075420;28;20094;-73
2022/04/09 00:58:45;;;;;;;20.55;3.25;;;;;;;4.55;85.97;100761.03;5075375;28;20076;-73
2022/04/09 01:01:19;;;;;;;9.57;2.35;;;;;;;4.55;86.23;100763.63;5075242;28;20144;-73
2022/04/09 01:03:55;;;;;;;14.57;3.13;;;;;;;4.50;86.47;100765.19;5075249;28;20052;-73
2022/04/09 01:06:24;;;;;;;12.38;3.67;;;;;;;4.54;85.19;100772.25;5074878;28;20080;-73
2022/04/09 01:08:53;;;;;;;12.02;2.72;;;;;;;4.61;83.28;100771.66;5075266;28;20098;-73
2022/04/09 01:11:22;;;;;;;6.95;3.03;;;;;;;4.58;82.54;100775.00;5075252;28;20053;-73
2022/04/09 01:13:51;;;;;;;12.05;3.33;;;;;;;4.65;81.92;100781.31;5074769;28;20048;-73
2022/04/09 01:16:24;;;;;;;10.63;2.33;;;;;;;4.63;81.79;100785.56;5074017;28;20045;-74
2022/04/09 01:18:52;;;;;;;11.52;3.05;;;;;;;4.54;82.40;100785.25;5074688;28;20071;-73
2022/04/09 01:21:20;;;;;;;14.65;3.35;;;;;;;4.60;81.85;100795.84;5074534;28;20475;-72
2022/04/09 01:24:01;;;;;;;13.02;3.15;;;;;;;4.56;83.01;100791.38;5074668;28;20075;-73
2022/04/09 01:26:29;;;;;;;11.88;3.40;;;;;;;4.59;83.28;100802.75;5074612;28;20080;-76
2022/04/09 01:28:58;;;;;;;17.38;3.08;;;;;;;4.73;83.16;100799.78;5074920;28;20487;-76
2022/04/09 01:31:26;;;;;;;22.42;3.35;;;;;;;4.74;83.91;100818.03;5075339;28;20049;-77
2022/04/09 01:33:56;;;;;;;15.57;3.58;;;;;;;4.82;83.60;100826.97;5074987;28;20044;-76
2022/04/09 01:36:24;;;;;;;16.33;3.25;;;;;;;4.91;83.59;100832.50;5074801;28;20048;-76
2022/04/09 01:38:54;;;;;;;15.18;3.47;;;;;;;5.02;81.65;100840.69;5075133;28;20056;-76
2022/04/09 01:41:22;;;;;;;12.07;2.60;;;;;;;5.02;79.42;100835.47;5075080;28;20059;-76
2022/04/09 01:43:52;;;;;;;15.00;2.67;;;;;;;4.92;78.86;100848.97;5074635;28;20055;-75
2022/04/09 01:46:20;;;;;;;10.82;1.95;;;;;;;4.75;75.04;100858.75;5074480;28;20470;-75
2022/04/09 01:48:57;;;;;;;9.98;2.78;;;;;;;4.60;76.27;100865.97;5075001;28;20048;-77
2022/04/09 01:51:25;;;;;;;4.70;1.60;;;;;;;4.52;74.75;100857.00;5074592;28;20054;-78
2022/04/09 01:53:54;;;;;;;5.15;1.85;;;;;;;4.43;75.86;100864.47;5074458;28;20044;-76
2022/04/09 01:56:22;;;;;;;8.38;2.55;;;;;;;4.50;76.27;100858.66;5074621;28;20435;-76
2022/04/09 01:58:58;;;;;;;7.03;2.28;;;;;;;4.51;76.08;100856.13;5074100;28;20086;-73
2022/04/09 02:01:26;;;;;;;9.27;1.92;;;;;;;4.41;77.46;100860.91;5074269;28;20053;-73
2022/04/09 02:03:54;;;;;;;7.63;2.00;;;;;;;4.32;78.65;100858.84;5074323;28;20056;-74
2022/04/09 02:06:22;;;;;;;5.57;1.80;;;;;;;4.23;80.16;100858.50;5074064;28;20509;-73
2022/04/09 02:08:53;;;;;;;10.77;1.90;;;;;;;4.22;80.98;100869.69;5073945;28;20058;-73
2022/04/09 02:11:23;;;;;;;9.60;2.60;;;;;;;4.11;82.03;100869.31;5074272;28;20127;-73
2022/04/09 02:13:52;;;;;;;7.22;1.60;;;;;;;4.03;83.12;100869.84;5074407;28;20052;-73
2022/04/09 02:16:20;;;;;;;9.65;2.35;;;;;;;4.01;83.52;100877.56;5074103;28;20079;-73
2022/04/09 02:18:50;;;;;;;7.75;2.08;;;;;;;4.02;84.00;100879.34;5074500;28;20044;-73
2022/04/09 02:21:21;;;;;;;7.63;1.90;;;;;;;4.00;84.70;100885.28;5074724;28;20044;-74
2022/04/09 02:23:50;;;;;;;5.95;2.30;;;;;;;3.98;85.59;100890.41;5074685;28;20052;-75
2022/04/09 02:26:23;;;;;;;7.85;2.13;;;;;;;4.01;86.37;100893.13;5074405;28;20037;-74
2022/04/09 02:28:54;;;;;;;4.57;1.90;;;;;;;3.94;87.04;100891.09;5074257;28;20079;-75
2022/04/09 02:31:22;;;;;;;9.52;2.53;;;;;;;3.88;87.79;100891.75;5074813;28;20048;-75
2022/04/09 02:33:56;;;;;;;14.52;2.97;;;;;;;3.81;88.55;100894.03;5074327;28;20052;-75
2022/04/09 02:36:27;;;;;;;12.82;2.72;;;;;;;3.82;88.92;100898.38;5075038;28;20048;-75
2022/04/09 02:38:54;;;;;;;11.90;3.33;;;;;;;3.76;89.11;100903.31;5074707;28;20055;-75
2022/04/09 02:41:24;;;;;;;9.07;3.13;;;;;;;3.79;89.25;100900.84;5075067;28;20127;-75
2022/04/09 02:43:52;;;;;;;10.65;2.63;;;;;;;3.77;89.50;100907.69;5074615;28;20040;-75
2022/04/09 02:46:23;;;;;;;13.27;2.42;;;;;;;3.79;89.25;100913.84;5074391;28;20083;-76
2022/04/09 02:48:52;;;;;;;7.47;2.38;;;;;;;3.85;88.58;100909.78;5074624;28;20055;-76
2022/04/09 02:51:23;;;;;;;8.82;2.53;;;;;;;4.10;85.93;100909.06;5074776;28;20044;-75
2022/04/09 02:53:52;;;;;;;6.20;2.40;;;;;;;4.19;84.38;100916.31;5074520;28;20447;-76
2022/04/09 02:56:20;;;;;;;7.43;2.30;;;;;;;4.13;84.12;100914.38;5074438;28;20445;-76
2022/04/09 02:58:57;;;;;;;11.52;2.83;;;;;;;4.17;83.72;100918.84;5074614;28;20083;-76
2022/04/09 03:01:27;;;;;;;8.98;2.17;;;;;;;4.20;82.90;100923.28;5075260;28;20059;-76
2022/04/09 03:03:55;;;;;;;7.80;2.65;;;;;;;4.17;82.61;100926.63;5075061;28;20048;-76
2022/04/09 03:06:23;;;;;;;12.48;2.72;;;;;;;4.19;81.74;100919.78;5074618;28;20044;-76
2022/04/09 03:08:52;;;;;;;10.25;2.33;;;;;;;4.14;81.88;100926.53;5075256;28;20044;-76
2022/04/09 03:11:23;;;;;;;13.55;2.00;;;;;;;4.03;82.96;100921.75;5076685;28;20048;-76
2022/04/09 03:13:53;;;;;;;4.70;2.13;;;;;;;4.17;81.32;100929.22;5077059;28;20052;-76
2022/04/09 03:16:21;;;;;;;6.30;2.17;;;;;;;4.17;81.86;100930.94;5076508;28;20067;-76
2022/04/09 03:18:52;;;;;;;7.13;2.28;;;;;;;4.20;81.68;100937.13;5079102;28;20074;-76
2022/04/09 03:21:20;;;;;;;11.85;2.65;;;;;;;4.19;82.30;100937.06;5079513;28;20086;-75
2022/04/09 03:23:52;;;;;;;10.50;2.53;;;;;;;4.25;82.41;100935.59;5079279;28;20052;-76
2022/04/09 03:26:20;;;;;;;4.00;2.55;;;;;;;4.20;83.62;100942.31;5079588;28;20044;-75
2022/04/09 03:28:53;;;;;;;15.02;2.50;;;;;;;4.25;84.29;100950.31;5079039;28;20075;-75
2022/04/09 03:31:21;;;;;;;9.43;2.40;;;;;;;4.14;85.11;100955.09;5078916;28;20048;-76
2022/04/09 03:33:52;;;;;;;8.02;2.78;;;;;;;4.11;85.91;100957.56;5078279;28;20048;-75
2022/04/09 03:36:23;;;;;;;10.82;2.60;;;;;;;4.18;85.56;100953.47;5078926;28;20064;-75
2022/04/09 03:38:52;;;;;;;13.13;2.55;;;;;;;4.19;84.86;100956.13;5079183;28;20048;-75
2022/04/09 03:41:20;;;;;;;10.35;2.28;;;;;;;4.21;84.61;100964.88;5078368;28;20048;-75
2022/04/09 03:43:55;;;;;;;11.80;3.03;;;;;;;4.45;80.97;100964.09;5078600;28;20102;-75
2022/04/09 03:46:25;;;;;;;8.45;2.17;;;;;;;4.42;80.67;100966.56;5077482;28;20066;-75
2022/04/09 03:48:53;;;;;;;8.55;2.17;;;;;;;4.48;79.63;100961.59;5076331;28;20068;-75
2022/04/09 03:51:21;;;;;;;7.50;2.38;;;;;;;4.54;78.62;100969.63;5076716;28;20049;-75
2022/04/09 03:53:51;;;;;;;9.40;2.63;;;;;;;4.53;79.58;100967.88;5076014;28;20369;-75
2022/04/09 03:56:22;;;;;;;8.35;2.45;;;;;;;4.57;79.03;100965.47;5076370;28;20056;-75
2022/04/09 03:58:57;;;;;;;13.88;4.18;;;;;;;4.63;79.17;100972.59;5075620;28;20048;-76
2022/04/09 04:01:27;;;;;;;10.05;3.40;;;;;;;4.69;79.70;100972.84;5074043;28;20058;-75
2022/04/09 04:03:54;;;;;;;11.35;2.13;;;;;;;4.72;79.89;100980.75;5073239;28;20057;-76
2022/04/09 04:06:25;;;;;;;13.75;2.80;;;;;;;4.73;80.51;100990.31;5073054;28;20045;-76
2022/04/09 04:08:55;;;;;;;8.02;3.25;;;;;;;4.71;80.95;100994.56;5072659;28;20044;-75
2022/04/09 04:11:23;;;;;;;9.05;2.25;;;;;;;4.74;81.41;100989.50;5072938;28;20144;-75
2022/04/09 04:13:58;;;;;;;17.48;3.10;;;;;;;4.62;82.39;101001.13;5072962;28;20053;-75
2022/04/09 04:16:27;;;;;;;13.55;2.63;;;;;;;4.65;82.69;101004.72;5073562;28;20056;-75
2022/04/09 04:18:55;;;;;;;21.15;2.55;;;;;;;4.70;82.34;101004.91;5076471;28;20048;-74
2022/04/09 04:21:23;;;;;;;11.52;3.25;;;;;;;4.74;81.61;101014.59;5076222;28;20052;-74
2022/04/09 04:23:54;;;;;;;10.45;2.80;;;;;;;4.85;81.22;101013.28;5076407;28;20040;-74
2022/04/09 04:26:22;;;;;;;11.38;2.72;;;;;;;4.82;81.51;101014.06;5076188;28;20155;-77
2022/04/09 04:28:58;;;;;;;13.07;3.15;;;;;;;4.86;81.40;101025.47;5076087;28;20473;-74
2022/04/09 04:31:26;;;;;;;8.77;2.03;;;;;;;4.80;81.07;101025.22;5076302;28;20067;-76
2022/04/09 04:33:55;;;;;;;14.55;2.80;;;;;;;4.86;80.21;101028.94;5076404;28;20083;-75
2022/04/09 04:36:24;;;;;;;10.80;2.72;;;;;;;4.94;79.18;101031.84;5077131;28;20048;-75
2022/04/09 04:38:52;;;;;;;11.30;2.53;;;;;;;4.86;79.39;101036.75;5076682;28;20044;-76
2022/04/09 04:41:21;;;;;;;19.83;3.47;;;;;;;4.92;78.49;101037.00;5076949;28;20501;-75
2022/04/09 04:43:52;;;;;;;9.93;2.55;;;;;;;4.82;79.19;101046.97;5076258;28;20048;-75
2022/04/09 04:46:21;;;;;;;14.45;3.17;;;;;;;4.83;79.20;101046.13;5076969;28;20136;-75
2022/04/09 04:48:52;;;;;;;13.82;2.92;;;;;;;4.78;78.95;101045.94;5076517;28;20054;-76
2022/04/09 04:51:20;;;;;;;13.70;3.17;;;;;;;4.85;78.82;101045.38;5076749;28;20060;-76
2022/04/09 04:53:50;;;;;;;9.55;2.55;;;;;;;4.82;78.44;101045.25;5076532;28;20063;-75
2022/04/09 04:56:23;;;;;;;8.90;2.78;;;;;;;4.78;79.75;101055.47;5077297;28;20067;-75
2022/04/09 04:58:54;;;;;;;11.25;2.75;;;;;;;4.76;81.60;101060.59;5076475;28;20052;-74
2022/04/09 05:01:24;;;;;;;7.45;3.63;;;;;;;4.77;81.81;101062.38;5076307;28;20399;-74
2022/04/09 05:03:53;;;;;;;10.75;3.40;;;;;;;4.77;84.01;101062.38;5076060;28;20048;-74
2022/04/09 05:06:21;;;;;;;14.48;3.95;;;;;;;4.72;85.85;101060.41;5076025;28;20044;-74
2022/04/09 05:08:52;;;;;;;16.10;3.60;;;;;;;4.77;86.96;101064.06;5076088;28;20110;-74
2022/04/09 05:11:21;;;;;;;16.25;4.55;;;;;;;4.72;87.87;101053.50;5075729;28;20048;-74
2022/04/09 05:13:52;;;;;;;13.43;3.92;;;;;;;4.68;89.03;101056.81;5075914;28;20044;-74
2022/04/09 05:16:20;;;;;;;14.30;3.13;;;;;;;4.68;89.52;101064.59;5076043;28;20131;-74
2022/04/09 05:18:51;;;;;;;14.55;3.35;;;;;;;4.67;89.80;101061.94;5075572;28;20059;-74
2022/04/09 05:21:22;;;;;;;12.30;3.45;;;;;;;4.78;89.84;101064.13;5076507;28;20119;-75
2022/04/09 05:23:53;;;;;;;12.43;3.38;;;;;;;4.90;89.66;101077.63;5075990;28;20439;-75
2022/04/09 05:26:21;;;;;;;14.73;4.25;;;;;;;4.96;89.35;101084.78;5075593;28;20080;-74
2022/04/09 05:28:53;;;;;;;15.65;4.20;;;;;;;5.07;88.76;101093.00;5074839;28;20060;-74
2022/04/09 05:31:27;;;;;;;12.30;3.50;;;;;;;5.10;88.28;101122.59;5075478;28;20084;-75
2022/04/09 05:33:59;;;;;;;15.30;4.13;;;;;;;4.92;85.22;101127.94;5075200;28;20053;-75
2022/04/09 05:36:27;;;;;;;9.13;2.40;;;;;;;4.50;83.79;101132.25;5075088;28;20166;-74
2022/04/09 05:38:57;;;;;;;11.52;2.55;;;;;;;4.28;80.73;101117.47;5075349;28;20102;-75
2022/04/09 05:41:27;;;;;;;7.93;2.13;;;;;;;4.19;80.82;101135.25;5075379;28;20060;-75
2022/04/09 05:43:57;;;;;;;4.38;1.77;;;;;;;4.17;81.07;101128.22;5075137;28;20131;-75
2022/04/09 05:46:25;;;;;;;3.53;1.67;;;;;;;4.22;79.74;101118.91;5075309;28;20049;-76
2022/04/09 05:48:54;;;;;;;5.35;2.20;;;;;;;4.17;80.80;101134.28;5075350;28;20147;-75
2022/04/09 05:51:24;;;;;;;6.28;2.15;;;;;;;4.18;81.15;101130.88;5076163;28;20052;-77
2022/04/09 05:53:52;;;;;;;7.03;2.80;;;;;;;4.25;80.41;101139.81;5075263;28;20052;-77
2022/04/09 05:56:20;;;;;;;3.65;1.90;;;;;;;4.20;81.32;101134.44;5075552;28;20056;-75
2022/04/09 05:58:52;;;;;;;8.50;2.47;;;;;;;4.18;82.60;101138.66;5074809;28;20048;-76
2022/04/09 06:01:40;;;;;;;8.93;2.75;;;;;;;4.26;83.79;101145.09;5074763;28;20108;-75
2022/04/09 06:04:08;;;;;;;12.18;3.35;;;;;;;4.47;86.31;101145.13;5075204;28;20072;-75
2022/04/09 06:06:38;;;;;;;11.40;3.53;;;;;;;4.64;86.31;101148.44;5074617;28;20044;-76
2022/04/09 06:09:07;;;;;;;9.00;3.53;;;;;;;4.66;86.92;101151.09;5074634;28;20082;-75
2022/04/09 06:11:35;;;;;;;14.02;2.95;;;;;;;4.73;87.27;101156.59;5074928;28;20132;-77
2022/04/09 06:14:04;;;;;;;16.48;3.83;;;;;;;4.77;87.15;101163.72;5074951;28;20058;-75
2022/04/09 06:16:34;;;;;;;9.27;2.92;;;;;;;4.87;86.70;101167.56;5074406;28;21979;-76
2022/04/09 06:19:02;;;;;;;8.90;3.28;;;;;;;4.91;86.42;101170.38;5075559;28;20054;-76
2022/04/09 06:21:30;;;;;;;8.18;2.53;;;;;;;4.92;86.85;101169.53;5075088;28;20048;-76
2022/04/09 06:24:00;;;;;;;8.88;2.40;;;;;;;5.00;87.03;101169.84;5075749;28;20128;-76
2022/04/09 06:26:28;;;;;;;10.63;3.58;;;;;;;5.08;86.42;101178.84;5075064;28;20056;-75
2022/04/09 06:28:59;;;;;;;18.67;3.53;;;;;;;5.09;86.99;101177.13;5074545;28;20098;-75
2022/04/09 06:31:27;;;;;;;15.80;3.92;;;;;;;5.13;86.74;101181.63;5075393;28;20078;-75
2022/04/09 06:33:55;;;;;;;10.27;3.03;;;;;;;5.15;87.09;101185.19;5076095;28;20048;-75
2022/04/09 06:36:24;;;;;;;14.60;3.97;;;;;;;5.16;87.22;101181.75;5075353;28;20134;-76
2022/04/09 06:39:04;;;;;;;14.90;3.55;;;;;;;5.17;86.57;101178.34;5076293;28;20060;-75
2022/04/09 06:41:33;;;;;;;8.80;3.38;;;;;;;5.24;85.35;101198.53;5075317;28;20045;-75
2022/04/09 06:44:02;;;;;;;11.48;3.95;;;;;;;5.17;86.01;101193.94;5076328;28;20079;-75
2022/04/09 06:46:30;;;;;;;5.78;2.97;;;;;;;5.18;85.59;101209.59;5076276;28;20048;-76
2022/04/09 06:48:59;;;;;;;10.02;3.40;;;;;;;5.16;85.65;101212.97;5076695;28;20098;-74
2022/04/09 06:51:27;;;;;;;11.02;3.60;;;;;;;5.12;86.34;101211.94;5076274;28;20534;-75
2022/04/09 06:53:55;;;;;;;12.77;3.90;;;;;;;5.13;85.90;101218.03;5076510;28;20127;-76
2022/04/09 06:56:24;;;;;;;17.58;4.30;;;;;;;5.10;86.36;101223.09;5077073;28;20049;-74
2022/04/09 06:58:53;;;;;;;11.07;3.50;;;;;;;5.16;86.20;101232.03;5078685;28;20048;-74
2022/04/09 07:01:21;;;;;;;13.38;3.92;;;;;;;5.19;86.72;101236.50;5079915;28;20091;-75
2022/04/09 07:03:52;;;;;;;12.80;3.88;;;;;;;5.30;87.23;101248.19;5079887;28;20055;-75
2022/04/09 07:06:23;;;;;;;14.27;4.50;;;;;;;5.47;86.03;101247.16;5079377;28;20052;-75
2022/04/09 07:08:59;;;;;;;14.15;4.28;;;;;;;5.51;86.90;101248.16;5079151;28;20052;-75
2022/04/09 07:11:29;;;;;;;11.57;3.05;;;;;;;5.52;85.31;101260.34;5078806;28;20051;-76
2022/04/09 07:13:57;;;;;;;4.88;2.10;;;;;;;5.26;85.22;101257.56;5080020;28;20137;-76
2022/04/09 07:16:25;;;;;;;11.95;4.22;;;;;;;5.20;89.26;101261.66;5078863;28;20461;-78
2022/04/09 07:18:53;;;;;;;15.82;3.92;;;;;;;5.27;90.37;101268.88;5077398;28;20420;-77
2022/04/09 07:21:24;;;;;;;10.85;2.85;;;;;;;5.11;84.04;101267.38;5076015;28;20052;-76
2022/04/09 07:23:52;;;;;;;10.50;2.15;;;;;;;5.03;84.01;101273.06;5074663;28;20044;-76
2022/04/09 07:26:20;;;;;;;8.75;2.47;;;;;;;5.06;87.14;101268.88;5074336;28;20040;-75
2022/04/09 07:28:54;;;;;;;10.40;2.83;;;;;;;5.54;87.83;101277.78;5074123;28;20048;-76
2022/04/09 07:31:22;;;;;;;6.15;2.42;;;;;;;5.83;86.66;101278.06;5073996;28;20051;-76
2022/04/09 07:33:53;;;;;;;13.82;3.42;;;;;;;5.79;88.70;101289.19;5073358;28;20062;-76
2022/04/09 07:36:21;;;;;;;6.75;2.67;;;;;;;5.77;86.77;101288.25;5073951;28;20507;-76
2022/04/09 07:38:53;;;;;;;9.07;2.90;;;;;;;5.65;86.00;101306.84;5073362;28;20120;-75
2022/04/09 07:41:21;;;;;;;8.32;1.90;;;;;;;5.67;88.07;101312.13;5073338;28;20053;-75
2022/04/09 07:43:53;;;;;;;6.93;2.17;;;;;;;5.44;87.23;101317.25;5073821;28;20052;-75
2022/04/09 07:46:21;;;;;;;7.70;2.08;;;;;;;5.42;88.79;101295.50;5073035;28;20075;-74
2022/04/09 07:48:53;;;;;;;4.32;1.98;;;;;;;5.18;88.13;101289.31;5072863;28;20510;-74
2022/04/09 07:51:21;;;;;;;2.17;1.52;;;;;;;4.79;87.30;101299.78;5073803;28;20087;-75
2022/04/09 07:53:52;;;;;;;1.88;1.30;;;;;;;4.83;87.61;101296.50;5076546;28;20505;-77
2022/04/09 07:56:21;;;;;;;4.00;1.67;;;;;;;4.86;87.07;101309.63;5076497;28;20048;-75
2022/04/09 07:58:53;;;;;;;1.20;1.17;;;;;;;4.78;84.23;101307.50;5076200;28;20467;-75
2022/04/09 08:01:21;;;;;;;2.33;1.50;;;;;;;4.83;83.88;101312.09;5076505;28;20056;-75
2022/04/09 08:03:51;;;;;;;4.63;1.73;;;;;;;4.95;82.07;101318.63;5076480;28;20465;-75
2022/04/09 08:06:23;;;;;;;3.97;1.60;;;;;;;5.69;82.40;101321.75;5076217;28;20064;-74
2022/04/09 08:08:58;;;;;;;6.70;1.95;;;;;;;5.90;81.59;101327.88;5076163;28;20444;-74
2022/04/09 08:11:28;;;;;;;5.32;1.75;;;;;;;6.02;79.78;101323.97;5076353;28;20048;-74
2022/04/09 08:13:57;;;;;;;5.53;1.83;;;;;;;6.73;80.95;101337.09;5076643;28;20075;-75
2022/04/09 08:16:26;;;;;;;5.68;3.13;;;;;;;7.14;81.10;101342.91;5076474;28;20052;-76
2022/04/09 08:18:57;;;;;;;5.40;2.40;;;;;;;7.55;79.84;101337.34;5076711;28;20066;-76
2022/04/09 08:21:26;;;;;;;8.57;2.78;;;;;;;7.30;81.29;101347.78;5076245;28;20457;-77
2022/04/09 08:23:56;;;;;;;12.13;3.55;;;;;;;7.19;80.23;101343.94;5076519;28;20108;-78
2022/04/09 08:26:26;;;;;;;9.95;4.00;;;;;;;7.18;81.54;101342.19;5077354;28;20052;-77
2022/04/09 08:28:58;;;;;;;12.43;4.50;;;;;;;7.10;82.38;101343.63;5076441;28;20036;-76
2022/04/09 08:31:28;;;;;;;9.57;3.55;;;;;;;7.16;82.04;101346.44;5076109;28;20072;-75
2022/04/09 08:33:59;;;;;;;12.13;3.60;;;;;;;6.94;79.82;101351.75;5076295;28;20045;-75
2022/04/09 08:36:27;;;;;;;14.15;3.38;;;;;;;6.89;78.86;101357.69;5076385;28;20483;-75
2022/04/09 08:38:56;;;;;;;9.35;3.50;;;;;;;7.06;78.29;101344.34;5076086;28;20082;-75
2022/04/09 08:41:24;;;;;;;15.07;4.30;;;;;;;7.60;77.53;101355.78;5076263;28;20048;-78
2022/04/09 08:43:52;;;;;;;10.65;3.30;;;;;;;7.88;76.69;101353.22;5076607;28;20090;-74
2022/04/09 08:46:27;;;;;;;12.63;4.13;;;;;;;8.15;74.30;101355.84;5076224;28;20070;-75
2022/04/09 08:48:56;;;;;;;11.02;3.72;;;;;;;8.18;74.20;101349.81;5075812;28;20047;-76
2022/04/09 08:51:25;;;;;;;12.35;3.05;;;;;;;7.97;74.47;101359.59;5075953;28;20048;-74
2022/04/09 08:54:00;;;;;;;10.63;3.75;;;;;;;7.65;73.35;101358.53;5075559;28;20056;-74
2022/04/09 08:56:35;;;;;;;12.98;3.42;;;;;;;8.44;74.84;101359.34;5075642;28;20040;-74
2022/04/09 08:59:04;;;;;;;8.05;3.42;;;;;;;8.29;73.01;101371.06;5076032;28;20070;-74
2022/04/09 09:01:34;;;;;;;11.93;3.92;;;;;;;8.56;70.73;101373.63;5075767;28;20462;-74
2022/04/09 09:04:02;;;;;;;10.25;3.92;;;;;;;8.91;73.16;101362.47;5074781;28;20075;-75
2022/04/09 09:06:34;;;;;;;12.60;3.35;;;;;;;9.27;70.57;101362.59;5075587;28;20048;-75
2022/04/09 09:09:05;;;;;;;7.80;3.10;;;;;;;9.14;70.68;101370.94;5075830;28;20086;-76
2022/04/09 09:11:45;;;;;;;10.40;3.75;;;;;;;9.17;67.21;101378.88;5075324;28;20049;-76
2022/04/09 09:14:26;;;;;;;9.90;3.13;;;;;;;9.11;66.57;101368.25;5075774;28;20582;-76
2022/04/09 09:16:58;;;;;;;11.68;3.30;;;;;;;9.17;67.61;101382.38;5075740;28;20048;-76
2022/04/09 09:19:58;;;;;;;10.52;3.58;;;;;;;8.51;68.43;101391.78;5076321;28;20454;-76
2022/04/09 09:22:36;;;;;;;8.85;3.40;;;;;;;8.55;69.41;101388.41;5075810;28;20040;-76
2022/04/09 09:25:07;;;;;;;9.80;3.42;;;;;;;8.75;70.88;101384.66;5076534;28;20064;-76
2022/04/09 09:27:35;;;;;;;13.15;3.70;;;;;;;8.23;70.05;101399.59;5076036;28;20131;-77
2022/04/09 09:30:05;;;;;;;9.40;3.00;;;;;;;8.00;70.79;101399.75;5075849;28;20115;-76
2022/04/09 09:32:35;;;;;;;12.27;3.30;;;;;;;8.09;71.15;101402.66;5075878;28;20090;-75
2022/04/09 09:35:09;;;;;;;7.22;3.40;;;;;;;7.99;71.75;101400.59;5076007;28;20072;-75
2022/04/09 09:37:38;;;;;;;9.90;3.22;;;;;;;8.28;70.21;101408.47;5076046;28;20052;-76
2022/04/09 09:40:07;;;;;;;11.05;3.00;;;;;;;8.29;69.32;101413.75;5076110;28;20570;-78
2022/04/09 09:42:35;;;;;;;8.07;3.63;;;;;;;8.58;68.99;101413.78;5075934;28;20465;-76
2022/04/09 09:45:05;;;;;;;6.82;2.78;;;;;;;8.63;66.76;101418.28;5076165;28;20535;-75
2022/04/09 09:47:35;;;;;;;8.98;2.97;;;;;;;8.60;68.00;101417.31;5075869;28;20373;-74
2022/04/09 09:50:04;;;;;;;8.60;3.08;;;;;;;9.12;67.71;101409.28;5075886;28;20055;-75
2022/04/09 09:52:34;;;;;;;8.13;2.53;;;;;;;9.17;67.74;101408.56;5075465;28;20048;-75
2022/04/09 09:55:06;;;;;;;6.93;2.88;;;;;;;9.77;66.51;101417.97;5057903;28;20152;-74
2022/04/09 09:57:38;;;;;;;7.53;2.75;;;;;;;9.39;63.72;101415.22;5075437;28;20070;-74
2022/04/09 10:00:10;;;;;;;7.30;2.80;;;;;;;8.90;65.34;101426.09;5075490;28;20088;-74
2022/04/09 10:02:41;;;;;;;8.68;3.03;;;;;;;9.32;65.50;101426.41;5075295;28;20426;-74
2022/04/09 10:05:10;;;;;;;8.52;2.75;;;;;;;9.41;63.49;101424.00;5075645;28;20036;-74
2022/04/09 10:07:39;;;;;;;8.02;3.10;;;;;;;9.25;63.80;101420.97;5075678;28;20041;-75
2022/04/09 10:10:08;;;;;;;11.45;2.83;;;;;;;9.57;62.41;101435.78;5076610;28;20526;-74
2022/04/09 10:12:39;;;;;;;6.30;2.47;;;;;;;8.89;62.46;101437.38;5076210;28;20057;-75
2022/04/09 10:15:10;;;;;;;9.23;2.40;;;;;;;9.93;64.24;101441.09;5059558;28;20053;-74
2022/04/09 10:17:41;;;;;;;13.95;3.85;;;;;;;9.84;62.72;101428.66;5077308;28;20452;-74
2022/04/09 10:20:11;;;;;;;7.15;2.20;;;;;;;10.43;60.49;101429.22;5078821;28;20090;-74
2022/04/09 10:22:43;;;;;;;9.98;2.72;;;;;;;10.52;60.73;101433.81;5077863;28;20043;-74
2022/04/09 10:25:12;;;;;;;8.00;2.20;;;;;;;10.31;59.12;101443.81;5080008;28;20055;-75
2022/04/09 10:27:43;;;;;;;5.55;2.05;;;;;;;10.20;59.27;101437.44;5081919;28;20050;-74
2022/04/09 10:30:21;;;;;;;6.35;2.00;;;;;;;9.37;58.47;101445.72;5080806;28;20044;-73
2022/04/09 10:32:55;;;;;;;7.75;3.08;;;;;;;10.22;57.34;101454.09;5078364;28;20068;-73
2022/04/09 10:35:29;;;;;;;9.50;2.60;;;;;;;10.08;58.91;101449.34;5079447;28;20064;-76
2022/04/09 10:38:26;;;;;;;7.20;2.72;;;;;;;10.37;59.99;101450.09;5079785;28;20131;-76
2022/04/09 10:41:27;;;;;;;6.00;2.90;;;;;;;9.94;57.06;101458.59;5080937;28;20072;-75
2022/04/09 10:44:00;;;;;;;4.95;2.35;;;;;;;9.78;57.88;101459.03;5066261;28;20044;-78
2022/04/09 10:46:34;;;;;;;3.92;2.10;;;;;;;9.85;57.43;101463.59;5079364;28;20044;-79
2022/04/09 10:49:30;;;;;;;6.82;2.17;;;;;;;9.23;57.71;101486.34;5077855;28;20083;-77
2022/04/09 10:52:06;;;;;;;6.30;2.80;;;;;;;8.89;59.14;101478.34;5057183;28;20052;-75
2022/04/09 10:54:34;;;;;;;5.65;2.40;;;;;;;9.00;60.70;101483.06;5075067;28;20048;-79
2022/04/09 10:57:21;;;;;;;8.45;2.33;;;;;;;9.35;61.59;101491.94;5074903;28;20155;-77
2022/04/09 10:59:58;;;;;;;6.55;2.30;;;;;;;9.25;59.80;101484.66;5058077;28;20041;-76
2022/04/09 11:02:30;;;;;;;6.70;2.58;;;;;;;8.70;60.29;101503.06;5074440;28;20052;-77
2022/04/09 11:05:21;;;;;;;9.23;3.08;;;;;;;8.98;61.80;101486.47;5075373;28;20062;-78
2022/04/09 11:08:06;;;;;;;8.13;2.85;;;;;;;9.24;62.16;101479.41;5074779;28;20048;-77
2022/04/09 11:10:35;;;;;;;9.70;3.05;;;;;;;8.96;61.93;101482.94;5075037;28;20045;-76
2022/04/09 11:13:10;;;;;;;7.82;2.42;;;;;;;9.56;62.13;101477.66;5074432;28;20072;-77
2022/04/09 11:15:40;;;;;;;6.65;3.20;;;;;;;9.91;61.15;101479.47;5075510;28;20068;-78
2022/04/09 11:18:10;;;;;;;8.55;3.00;;;;;;;9.42;60.16;101493.84;5075963;28;20044;-77
2022/04/09 11:20:39;;;;;;;9.88;2.42;;;;;;;9.23;62.19;101498.56;5075363;28;20047;-77
2022/04/09 11:23:10;;;;;;;11.27;2.80;;;;;;;8.37;63.48;101513.31;5076032;28;20399;-77
2022/04/09 11:25:41;;;;;;;12.43;3.13;;;;;;;8.26;63.51;101515.56;5074979;28;20048;-77
2022/04/09 11:28:13;;;;;;;6.30;2.20;;;;;;;8.24;62.73;101511.13;5075330;28;20048;-74
2022/04/09 11:30:55;;;;;;;9.60;2.05;;;;;;;7.99;63.71;101518.13;5074484;28;20124;-74
2022/04/09 11:33:23;;;;;;;5.40;1.83;;;;;;;7.75;63.71;101515.56;5075492;28;20044;-77
2022/04/09 11:35:53;;;;;;;11.00;2.33;;;;;;;7.67;64.56;101523.94;5075166;28;20072;-77
2022/04/09 11:38:24;;;;;;;7.72;3.03;;;;;;;7.90;65.37;101529.97;5075463;28;20052;-77
2022/04/09 11:40:53;;;;;;;11.48;2.83;;;;;;;7.94;65.97;101522.31;5074876;28;20049;-77
2022/04/09 11:43:22;;;;;;;10.50;2.20;;;;;;;8.03;66.33;101525.25;5075253;28;20044;-77
2022/04/09 11:45:51;;;;;;;7.32;2.15;;;;;;;8.39;64.59;101516.88;5074604;28;20473;-78
2022/04/09 11:48:21;;;;;;;8.05;2.05;;;;;;;8.16;64.26;101521.31;5074644;28;20192;-77